Aérodrome :
LOGIN :

S'inscrire | Disclaimer

   EN    FR    IT 

 










Légende :    VFR   VFR Marginal   IFR   IFR Intensif   IFR Très Intensif
Visi : 
Plafond : 
>= 8 km
>= 3000ft
5 à 8 km
1000 à 3000 ft
1500m à 5 km
500 à 1000 ft
800 à 1500m
200 à 500 ft
< 800m
< 200 ft
Symboles :   Orages  Brouillard  Fortes neiges  Fortes précipitations  Vent > 20 kt
SIGMETs :   Divers  Orages  Givrage  Turbulence  Onde Orograph.  Cendres Volcan.







- Altitude de l'aérodrome : 425 ft
- Code IATA : DTM


EDLW - Dortmund

DERNIER METAR :
  • 171420Z VRB06KT 9999 FEW015 SCT018 BKN052 20/16 Q1019

METARs EXPIRÉS :
  • 171350Z 29005KT 220V360 9999 FEW015 SCT017 BKN051 19/16 Q1019
  • 171320Z 31006KT 250V360 9999 SCT017 BKN022 BKN051 20/16 Q1019
  • 171250Z 31005KT 240V360 9999 BKN017 BKN020 BKN030 20/16 Q1019
  • 171220Z 32005KT 260V020 9999 SCT016 BKN019 BKN045 20/16 Q1018
  • 171150Z 30004KT 230V020 9999 SCT012 BKN041 BKN048 19/16 Q1018

TAF TAF EDLW
Valide du 17 à 12h jusqu'au 18 à 12h UTC


171100Z 1712/1812 33005KT 9999 SCT025
BECMG 1718/1721 VRB03KT
BECMG 1809/1812 25008KT
Pas de NOTAMs connus pour ce terrain.



MET'MAP, la Météo Aéronautique d'un coup d'oeil ! - Copyright ORBIFLY Décembre 2007 - Disclaimer

ORBIFLY MET'MAP TEAM :

Programmation & Développement : Alexandra Zaïnal
Conception & Développement : Baudouin d'Aumeries
Co-Programmation & Développement : Marc-Olivier Méhu
Soutien technique & logistique : Manuel Goepfert

Contact : metmap@orbifly.com




SOURCES & CREDITS :

   NOAA